createdAt,value
2019-02-28T00:01:59.669Z,41.90
2019-02-28T00:04:32.759Z,42.00
2019-02-28T00:07:02.170Z,42.00
2019-02-28T00:09:32.327Z,42.00
2019-02-28T00:12:02.940Z,42.00
2019-02-28T00:14:33.144Z,42.00
2019-02-28T00:17:06.245Z,42.00
2019-02-28T00:19:35.285Z,42.00
2019-02-28T00:22:05.885Z,42.00
2019-02-28T00:24:36.062Z,42.00
2019-02-28T00:27:06.242Z,42.10
2019-02-28T00:29:36.599Z,42.00
2019-02-28T00:32:06.843Z,42.00
2019-02-28T00:34:39.351Z,42.00
2019-02-28T00:37:08.903Z,42.00
2019-02-28T00:39:39.077Z,42.00
2019-02-28T00:42:09.273Z,42.00
2019-02-28T00:44:39.625Z,42.00
2019-02-28T00:47:09.997Z,42.10
2019-02-28T00:49:40.228Z,42.10
2019-02-28T00:52:10.453Z,42.00
2019-02-28T00:54:44.372Z,42.00
2019-02-28T00:57:12.577Z,42.00
2019-02-28T00:59:42.853Z,42.00
2019-02-28T01:02:13.105Z,42.20
2019-02-28T01:04:43.203Z,42.10
2019-02-28T01:07:16.215Z,42.00
2019-02-28T01:09:45.326Z,42.00
2019-02-28T01:12:19.338Z,42.10
2019-02-28T01:14:47.779Z,42.10
2019-02-28T01:17:18.002Z,42.10
2019-02-28T01:19:48.451Z,42.10
2019-02-28T01:22:18.838Z,42.10
2019-02-28T01:24:49.109Z,42.10
2019-02-28T01:27:21.040Z,42.00
2019-02-28T01:29:51.090Z,42.10
2019-02-28T01:32:21.506Z,42.00
2019-02-28T01:34:51.707Z,42.10
2019-02-28T01:37:22.005Z,42.10
2019-02-28T01:39:52.193Z,42.20
2019-02-28T01:42:22.331Z,42.20
2019-02-28T01:44:52.523Z,42.20
2019-02-28T01:47:22.667Z,42.20
2019-02-28T01:49:52.934Z,42.10
2019-02-28T01:52:23.073Z,42.10
2019-02-28T01:54:53.230Z,42.10
2019-02-28T01:57:23.361Z,42.10
2019-02-28T01:59:54.566Z,42.20
2019-02-28T02:02:24.700Z,42.20
2019-02-28T02:04:54.911Z,42.20
2019-02-28T02:07:25.048Z,42.10
2019-02-28T02:09:55.181Z,42.20
2019-02-28T02:12:25.331Z,42.10
2019-02-28T02:14:55.582Z,42.20
2019-02-28T02:17:25.748Z,42.20
2019-02-28T02:19:55.968Z,42.20
2019-02-28T02:22:26.222Z,42.20
2019-02-28T02:24:59.386Z,42.20
2019-02-28T02:27:28.518Z,42.20
2019-02-28T02:29:58.727Z,42.30
2019-02-28T02:32:29.152Z,42.20
2019-02-28T02:35:06.096Z,42.30
2019-02-28T02:37:31.442Z,42.40
2019-02-28T02:40:01.651Z,42.40
2019-02-28T02:42:31.966Z,42.30
2019-02-28T02:45:05.063Z,42.30
2019-02-28T02:47:34.205Z,42.30
2019-02-28T02:50:06.654Z,42.30
2019-02-28T02:52:36.956Z,42.30
2019-02-28T02:55:08.325Z,42.30
2019-02-28T02:57:38.490Z,42.40
2019-02-28T03:00:18.353Z,42.30
2019-02-28T03:02:48.610Z,42.40
2019-02-28T03:05:18.755Z,42.60
2019-02-28T03:07:49.060Z,42.40
2019-02-28T03:10:19.662Z,42.30
2019-02-28T03:12:50.225Z,42.30
2019-02-28T03:15:25.915Z,42.40
2019-02-28T03:17:52.581Z,42.40
2019-02-28T03:20:22.727Z,42.30
2019-02-28T03:22:52.885Z,42.40
2019-02-28T03:25:27.444Z,42.40
2019-02-28T03:27:56.497Z,42.40
2019-02-28T03:30:31.240Z,42.40
2019-02-28T03:32:58.573Z,42.50
2019-02-28T03:35:40.348Z,42.50
2019-02-28T03:38:00.646Z,42.30
2019-02-28T03:40:30.867Z,42.40
2019-02-28T03:43:05.307Z,42.40
2019-02-28T03:45:35.086Z,42.40
2019-02-28T03:48:04.910Z,42.30
2019-02-28T03:50:35.042Z,42.40
2019-02-28T03:53:05.192Z,42.40
2019-02-28T03:55:40.181Z,42.40
2019-02-28T03:58:07.266Z,42.30
2019-02-28T04:00:37.660Z,42.30
2019-02-28T04:03:07.788Z,42.30
2019-02-28T04:05:37.984Z,42.40
2019-02-28T04:08:08.187Z,42.30
2019-02-28T04:10:38.338Z,42.30
2019-02-28T04:13:08.453Z,42.40
2019-02-28T04:15:38.731Z,42.30
2019-02-28T04:18:08.880Z,42.30
2019-02-28T04:20:39.117Z,42.20
2019-02-28T04:23:09.412Z,42.20
2019-02-28T04:25:39.562Z,42.20
2019-02-28T04:28:17.240Z,42.20
2019-02-28T04:30:43.838Z,42.10
2019-02-28T04:33:13.564Z,42.20
2019-02-28T04:35:43.701Z,42.10
2019-02-28T04:38:13.852Z,42.20
2019-02-28T04:40:44.001Z,42.20
2019-02-28T04:43:14.146Z,42.20
2019-02-28T04:45:44.653Z,42.00
2019-02-28T04:48:14.845Z,42.10
2019-02-28T04:50:45.215Z,42.10
2019-02-28T04:53:15.283Z,42.10
2019-02-28T04:55:45.583Z,42.00
2019-02-28T04:58:15.729Z,41.60
2019-02-28T05:00:45.844Z,41.90
2019-02-28T05:03:15.986Z,42.20
2019-02-28T05:05:46.892Z,41.90
2019-02-28T05:08:18.008Z,42.00
2019-02-28T05:10:48.398Z,42.00
2019-02-28T05:13:18.538Z,41.90
2019-02-28T05:15:48.781Z,41.90
2019-02-28T05:18:19.290Z,41.80
2019-02-28T05:20:49.431Z,41.80
2019-02-28T05:23:19.626Z,41.80
2019-02-28T05:25:51.989Z,41.80
2019-02-28T05:28:22.561Z,41.80
2019-02-28T05:30:53.829Z,41.70
2019-02-28T05:33:23.963Z,41.70
2019-02-28T05:35:57.227Z,41.80
2019-02-28T05:38:26.071Z,41.70
2019-02-28T05:40:56.224Z,41.70
2019-02-28T05:43:29.170Z,41.70
2019-02-28T05:45:59.429Z,41.60
2019-02-28T05:48:29.675Z,41.50
2019-02-28T05:51:00.323Z,41.50
2019-02-28T05:53:30.471Z,41.50
2019-02-28T05:56:00.657Z,41.50
2019-02-28T05:58:30.827Z,41.50
2019-02-28T06:01:01.242Z,41.40
2019-02-28T06:03:31.550Z,41.40
2019-02-28T06:06:01.728Z,41.30
2019-02-28T06:08:31.904Z,40.80
2019-02-28T06:11:02.091Z,40.80
2019-02-28T06:13:32.394Z,40.90
2019-02-28T06:16:02.584Z,40.90
2019-02-28T06:18:33.546Z,40.90
2019-02-28T06:21:03.801Z,40.80
2019-02-28T06:23:33.969Z,40.70
2019-02-28T06:26:04.149Z,40.60
2019-02-28T06:28:34.482Z,40.40
2019-02-28T06:31:04.898Z,40.80
2019-02-28T06:33:35.221Z,40.80
2019-02-28T06:36:05.418Z,40.90
2019-02-28T06:38:35.586Z,41.10
2019-02-28T06:41:07.655Z,41.10
2019-02-28T06:43:38.002Z,41.30
2019-02-28T06:46:08.727Z,41.40
2019-02-28T06:48:39.839Z,41.50
2019-02-28T06:51:10.040Z,41.50
2019-02-28T06:53:41.040Z,41.50
2019-02-28T06:56:11.523Z,41.50
2019-02-28T06:58:41.686Z,41.50
2019-02-28T07:01:11.906Z,41.50
2019-02-28T07:03:42.590Z,41.50
2019-02-28T07:06:12.923Z,41.60
2019-02-28T07:08:43.249Z,41.80
2019-02-28T07:11:14.522Z,41.80
2019-02-28T07:13:44.676Z,41.90
2019-02-28T07:16:14.873Z,42.20
2019-02-28T07:18:45.251Z,42.20
2019-02-28T07:21:15.413Z,42.30
2019-02-28T07:23:45.824Z,42.20
2019-02-28T07:26:18.724Z,42.40
2019-02-28T07:28:48.929Z,42.30
2019-02-28T07:31:21.623Z,42.30
2019-02-28T07:33:51.476Z,42.30
2019-02-28T07:36:21.758Z,42.30
2019-02-28T07:38:52.169Z,42.20
2019-02-28T07:41:26.160Z,42.30
2019-02-28T07:43:54.297Z,42.30
2019-02-28T07:46:24.785Z,42.30
2019-02-28T07:48:55.249Z,42.20
2019-02-28T07:51:26.453Z,42.20
2019-02-28T07:53:57.933Z,42.20
2019-02-28T07:56:28.233Z,42.10
2019-02-28T07:58:58.433Z,42.20
2019-02-28T08:01:28.609Z,42.10
2019-02-28T08:04:05.017Z,42.20
2019-02-28T08:06:47.459Z,42.20
2019-02-28T08:09:25.895Z,42.30
2019-02-28T08:11:56.712Z,42.20
2019-02-28T08:14:27.550Z,42.20
2019-02-28T08:16:58.420Z,42.20
2019-02-28T08:19:28.621Z,42.20
2019-02-28T08:21:58.777Z,42.10
2019-02-28T08:24:28.969Z,42.00
2019-02-28T08:26:59.239Z,42.00
2019-02-28T08:29:29.437Z,42.00
2019-02-28T08:31:59.593Z,42.00
2019-02-28T08:34:29.883Z,41.90
2019-02-28T08:37:00.146Z,41.80
2019-02-28T08:39:30.332Z,41.80
2019-02-28T08:42:04.361Z,41.70
2019-02-28T08:44:32.541Z,41.70
2019-02-28T08:47:03.298Z,41.80
2019-02-28T08:49:33.506Z,41.70
2019-02-28T08:52:05.600Z,41.70
2019-02-28T08:54:35.545Z,41.70
2019-02-28T08:57:05.961Z,41.70
2019-02-28T08:59:36.353Z,41.70
2019-02-28T09:02:06.520Z,42.20
2019-02-28T09:04:41.215Z,41.70
2019-02-28T09:07:08.815Z,41.70
2019-02-28T09:09:39.143Z,41.60
2019-02-28T09:12:09.712Z,41.60
2019-02-28T09:14:41.190Z,41.60
2019-02-28T09:17:11.452Z,41.60
2019-02-28T09:19:41.689Z,41.80
2019-02-28T09:22:12.035Z,41.60
2019-02-28T09:24:43.707Z,41.50
2019-02-28T09:27:14.126Z,41.60
2019-02-28T09:29:44.361Z,41.60
2019-02-28T09:32:14.782Z,41.50
2019-02-28T09:34:44.999Z,41.60
2019-02-28T09:37:15.163Z,42.00
2019-02-28T09:39:45.399Z,41.60
2019-02-28T09:42:15.856Z,41.60
2019-02-28T09:44:46.062Z,41.70
2019-02-28T09:47:16.399Z,41.70
2019-02-28T09:49:47.274Z,41.60
2019-02-28T09:52:19.286Z,41.70
2019-02-28T09:54:49.528Z,41.70
2019-02-28T09:57:19.887Z,41.70
2019-02-28T10:00:12.727Z,41.70
2019-02-28T10:02:45.143Z,41.70
2019-02-28T10:05:15.622Z,41.70
2019-02-28T10:07:46.953Z,41.70
2019-02-28T10:10:29.620Z,41.70
2019-02-28T10:12:59.793Z,42.20
2019-02-28T10:15:30.230Z,41.70
2019-02-28T10:18:00.670Z,41.80
2019-02-28T10:20:40.304Z,41.80
2019-02-28T10:23:10.506Z,41.70
2019-02-28T10:25:43.507Z,41.70
2019-02-28T10:28:12.474Z,41.90
2019-02-28T10:30:42.619Z,41.80
2019-02-28T10:33:14.342Z,41.80
2019-02-28T10:35:44.699Z,41.80
2019-02-28T10:38:14.827Z,41.80
2019-02-28T10:40:45.057Z,41.80
2019-02-28T10:43:16.262Z,41.80
2019-02-28T10:45:47.723Z,41.80
2019-02-28T10:48:17.855Z,41.80
2019-02-28T10:50:48.183Z,41.90
2019-02-28T10:53:18.686Z,42.30
2019-02-28T10:55:48.925Z,41.70
2019-02-28T10:58:19.589Z,41.80
2019-02-28T11:00:50.286Z,41.80
2019-02-28T11:03:20.465Z,41.70
2019-02-28T11:05:54.292Z,41.80
2019-02-28T11:08:22.683Z,41.70
2019-02-28T11:10:52.939Z,41.80
2019-02-28T11:13:23.293Z,41.70
2019-02-28T11:15:53.981Z,41.80
2019-02-28T11:18:24.117Z,41.80
2019-02-28T11:20:54.441Z,41.90
2019-02-28T11:23:24.774Z,41.80
2019-02-28T11:25:55.329Z,42.20
2019-02-28T11:28:28.260Z,41.70
2019-02-28T11:30:57.788Z,41.70
2019-02-28T11:33:27.971Z,41.60
2019-02-28T11:35:59.403Z,41.60
2019-02-28T11:38:29.806Z,41.60
2019-02-28T11:40:59.950Z,41.70
2019-02-28T11:43:30.252Z,41.60
2019-02-28T11:46:02.812Z,41.60
2019-02-28T11:48:33.314Z,41.60
2019-02-28T11:51:03.454Z,41.60
2019-02-28T11:53:39.318Z,41.60
2019-02-28T11:56:05.714Z,41.60
2019-02-28T11:58:35.933Z,41.70
2019-02-28T12:01:10.228Z,41.70
2019-02-28T12:03:37.970Z,41.70
2019-02-28T12:06:08.235Z,41.70
2019-02-28T12:08:38.353Z,41.70
2019-02-28T12:11:08.517Z,41.70
2019-02-28T12:13:38.651Z,41.70
2019-02-28T12:16:08.810Z,42.20
2019-02-28T12:18:40.099Z,41.80
2019-02-28T12:21:10.882Z,41.80
2019-02-28T12:23:41.055Z,41.80
2019-02-28T12:26:11.185Z,41.70
2019-02-28T12:28:41.418Z,41.30
2019-02-28T12:31:11.662Z,41.80
2019-02-28T12:33:42.157Z,41.80
2019-02-28T12:36:14.455Z,41.80
2019-02-28T12:38:44.296Z,41.70
2019-02-28T12:41:14.592Z,41.70
2019-02-28T12:43:44.732Z,41.60
2019-02-28T12:46:14.866Z,41.60
2019-02-28T12:48:45.532Z,41.50
2019-02-28T12:51:16.839Z,41.60
2019-02-28T12:53:46.975Z,41.50
2019-02-28T12:56:17.161Z,41.60
2019-02-28T12:58:47.434Z,41.50
2019-02-28T13:01:19.223Z,41.60
2019-02-28T13:03:54.675Z,41.60
2019-02-28T13:06:23.739Z,41.50
2019-02-28T13:08:53.539Z,41.50
2019-02-28T13:11:23.721Z,41.60
2019-02-28T13:13:53.856Z,41.50
2019-02-28T13:16:24.112Z,41.40
2019-02-28T13:18:54.270Z,41.50
2019-02-28T13:21:24.414Z,41.60
2019-02-28T13:23:54.554Z,41.50
2019-02-28T13:26:24.715Z,41.50
2019-02-28T13:28:57.413Z,41.40
2019-02-28T13:31:27.013Z,41.40
2019-02-28T13:33:57.333Z,41.50
2019-02-28T13:36:27.611Z,41.60
2019-02-28T13:38:57.791Z,41.90
2019-02-28T13:41:28.074Z,41.50
2019-02-28T13:43:59.487Z,41.40
2019-02-28T13:46:33.946Z,41.40
2019-02-28T13:49:01.961Z,41.40
2019-02-28T13:51:32.778Z,41.20
2019-02-28T13:54:06.399Z,41.40
2019-02-28T13:56:36.113Z,41.40
2019-02-28T13:59:06.257Z,41.40
2019-02-28T14:01:36.676Z,41.40
2019-02-28T14:04:06.858Z,41.40
2019-02-28T14:06:36.994Z,41.30
2019-02-28T14:09:07.898Z,41.30
2019-02-28T14:11:41.882Z,41.30
2019-02-28T14:14:10.249Z,41.40
2019-02-28T14:16:40.383Z,41.30
2019-02-28T14:19:10.531Z,41.30
2019-02-28T14:21:40.989Z,41.10
2019-02-28T14:24:11.131Z,41.10
2019-02-28T14:26:43.017Z,41.20
2019-02-28T14:29:13.368Z,41.10
2019-02-28T14:31:43.515Z,40.90
2019-02-28T14:34:13.667Z,40.80
2019-02-28T14:36:45.186Z,41.00
2019-02-28T14:39:15.356Z,41.00
2019-02-28T14:41:45.486Z,40.90
2019-02-28T14:44:15.674Z,40.90
2019-02-28T14:46:45.839Z,40.80
2019-02-28T14:49:16.051Z,40.70
2019-02-28T14:51:46.235Z,40.80
2019-02-28T14:54:16.371Z,40.80
2019-02-28T14:56:46.720Z,40.80
2019-02-28T14:59:16.871Z,40.80
2019-02-28T15:01:49.586Z,40.70
2019-02-28T15:04:18.911Z,40.80
2019-02-28T15:06:49.044Z,40.70
2019-02-28T15:09:19.181Z,40.70
2019-02-28T15:11:49.480Z,40.70
2019-02-28T15:14:19.631Z,40.70
2019-02-28T15:16:49.774Z,40.60
2019-02-28T15:19:21.453Z,40.70
2019-02-28T15:21:51.821Z,40.70
2019-02-28T15:24:22.936Z,40.80
2019-02-28T15:26:53.070Z,40.90
2019-02-28T15:29:24.347Z,41.10
2019-02-28T15:31:54.894Z,41.00
2019-02-28T15:34:25.043Z,41.00
2019-02-28T15:36:59.302Z,41.10
2019-02-28T15:39:28.105Z,41.10
2019-02-28T15:41:58.253Z,41.00
2019-02-28T15:44:30.171Z,41.00
2019-02-28T15:47:00.406Z,40.90
2019-02-28T15:49:30.550Z,40.90
2019-02-28T15:52:01.749Z,40.90
2019-02-28T15:54:32.631Z,40.80
2019-02-28T15:57:02.749Z,40.90
2019-02-28T15:59:32.962Z,40.90
2019-02-28T16:02:03.526Z,41.10
2019-02-28T16:04:34.946Z,40.90
2019-02-28T16:07:05.086Z,41.50
2019-02-28T16:09:35.210Z,40.70
2019-02-28T16:12:06.967Z,40.20
2019-02-28T16:14:37.103Z,40.20
2019-02-28T16:17:07.242Z,40.30
2019-02-28T16:19:37.383Z,40.50
2019-02-28T16:22:07.516Z,40.70
2019-02-28T16:24:39.753Z,40.80
2019-02-28T16:27:10.705Z,40.90
2019-02-28T16:29:40.979Z,40.90
2019-02-28T16:32:14.130Z,41.30
2019-02-28T16:34:43.275Z,41.00
2019-02-28T16:37:13.646Z,41.00
2019-02-28T16:39:43.796Z,41.00
2019-02-28T16:42:13.934Z,41.10
2019-02-28T16:44:45.045Z,41.10
2019-02-28T16:47:15.378Z,41.20
2019-02-28T16:49:45.505Z,41.20
2019-02-28T16:52:15.647Z,41.20
2019-02-28T16:54:45.770Z,41.30
2019-02-28T16:57:16.170Z,41.30
2019-02-28T16:59:46.332Z,41.30
2019-02-28T17:02:16.464Z,41.40
2019-02-28T17:04:48.692Z,41.40
2019-02-28T17:07:18.526Z,41.30
2019-02-28T17:09:48.668Z,41.40
2019-02-28T17:12:27.211Z,41.40
2019-02-28T17:14:58.245Z,41.30
2019-02-28T17:17:30.088Z,41.30
2019-02-28T17:20:03.069Z,41.40
2019-02-28T17:22:33.334Z,41.40
2019-02-28T17:25:04.316Z,41.30
2019-02-28T17:27:38.759Z,41.40
2019-02-28T17:30:24.409Z,41.40
2019-02-28T17:32:54.589Z,41.40
2019-02-28T17:35:24.749Z,41.40
2019-02-28T17:37:59.836Z,41.50
2019-02-28T17:40:27.162Z,41.30
2019-02-28T17:42:57.385Z,41.50
2019-02-28T17:45:27.973Z,41.40
2019-02-28T17:48:30.266Z,41.30
2019-02-28T17:51:11.391Z,41.40
2019-02-28T17:54:02.095Z,41.40
2019-02-28T17:57:02.832Z,41.50
2019-02-28T17:59:43.154Z,41.40
2019-02-28T18:02:57.925Z,41.50
2019-02-28T18:06:12.063Z,41.40
2019-02-28T18:08:56.410Z,41.40
2019-02-28T18:12:20.134Z,41.40
2019-02-28T18:15:23.772Z,41.40
2019-02-28T18:18:17.959Z,41.50
2019-02-28T18:21:08.190Z,41.50
2019-02-28T18:24:08.716Z,41.50
2019-02-28T18:27:11.559Z,41.50
2019-02-28T18:30:12.156Z,41.40
2019-02-28T18:32:42.392Z,41.30
2019-02-28T18:35:12.528Z,41.40
2019-02-28T18:37:42.679Z,41.50
2019-02-28T18:40:12.991Z,41.90
2019-02-28T18:42:43.419Z,41.40
2019-02-28T18:45:15.621Z,41.40
2019-02-28T18:47:45.405Z,41.30
2019-02-28T18:50:15.570Z,41.40
2019-02-28T18:52:45.877Z,41.40
2019-02-28T18:55:16.012Z,41.40
2019-02-28T18:57:46.155Z,41.60
2019-02-28T19:00:18.102Z,41.40
2019-02-28T19:02:48.576Z,41.40
2019-02-28T19:05:18.712Z,41.40
2019-02-28T19:07:48.858Z,41.40
2019-02-28T19:10:19.156Z,41.00
2019-02-28T19:12:49.541Z,41.50
2019-02-28T19:15:20.019Z,41.50
2019-02-28T19:17:50.482Z,41.50
2019-02-28T19:20:20.815Z,41.40
2019-02-28T19:22:51.035Z,41.50
2019-02-28T19:25:21.197Z,41.50
2019-02-28T19:27:51.334Z,41.50
2019-02-28T19:30:21.458Z,41.60
2019-02-28T19:32:51.612Z,41.60
2019-02-28T19:35:21.748Z,41.50
2019-02-28T19:37:52.124Z,41.50
2019-02-28T19:40:22.471Z,41.50
2019-02-28T19:42:52.703Z,41.60
2019-02-28T19:45:27.647Z,41.60
2019-02-28T19:47:57.790Z,41.60
2019-02-28T19:50:27.929Z,41.60
2019-02-28T19:52:58.079Z,41.80
2019-02-28T19:55:28.273Z,41.60
2019-02-28T19:57:58.486Z,41.60
2019-02-28T20:00:28.735Z,41.50
2019-02-28T20:02:58.988Z,41.50
2019-02-28T20:05:29.197Z,41.60
2019-02-28T20:07:59.480Z,41.50
2019-02-28T20:10:29.600Z,41.60
2019-02-28T20:12:59.766Z,41.60
2019-02-28T20:15:31.588Z,41.60
2019-02-28T20:18:01.733Z,41.60
2019-02-28T20:20:32.034Z,41.60
2019-02-28T20:23:02.428Z,41.50
2019-02-28T20:25:33.715Z,41.50
2019-02-28T20:28:06.031Z,41.60
2019-02-28T20:30:36.685Z,41.60
2019-02-28T20:33:07.376Z,41.50
2019-02-28T20:35:38.515Z,41.60
2019-02-28T20:38:08.924Z,41.70
2019-02-28T20:40:40.757Z,41.60
2019-02-28T20:43:11.047Z,41.70
2019-02-28T20:45:43.903Z,41.60
2019-02-28T20:48:15.037Z,41.60
2019-02-28T20:50:52.563Z,41.60
2019-02-28T20:53:23.351Z,41.60
2019-02-28T20:55:54.854Z,41.60
2019-02-28T20:58:25.193Z,41.70
2019-02-28T21:00:55.341Z,41.50
2019-02-28T21:03:31.139Z,41.60
2019-02-28T21:06:01.914Z,41.60
2019-02-28T21:08:32.091Z,41.70
2019-02-28T21:11:02.546Z,41.70
2019-02-28T21:13:33.181Z,41.60
2019-02-28T21:16:04.019Z,41.70
2019-02-28T21:18:34.546Z,41.70
2019-02-28T21:21:04.802Z,41.70
2019-02-28T21:23:35.486Z,41.70
2019-02-28T21:26:05.732Z,41.70
2019-02-28T21:28:36.106Z,41.70
2019-02-28T21:31:06.318Z,41.70
2019-02-28T21:33:36.614Z,41.80
2019-02-28T21:36:07.380Z,41.70
2019-02-28T21:38:38.026Z,41.70
2019-02-28T21:41:08.453Z,41.70
2019-02-28T21:43:39.347Z,41.80
2019-02-28T21:46:09.752Z,41.70
2019-02-28T21:48:40.021Z,41.70
2019-02-28T21:51:10.527Z,41.80
2019-02-28T21:53:42.441Z,41.80
2019-02-28T21:56:12.693Z,41.80
2019-02-28T21:58:43.175Z,41.80
2019-02-28T22:01:13.528Z,41.90
2019-02-28T22:03:43.710Z,41.90
2019-02-28T22:06:14.286Z,41.90
2019-02-28T22:08:44.783Z,41.80
2019-02-28T22:11:16.464Z,41.80
2019-02-28T22:13:47.168Z,41.90
2019-02-28T22:16:17.481Z,41.90
2019-02-28T22:18:48.145Z,42.00
2019-02-28T22:21:18.542Z,42.00
2019-02-28T22:23:48.990Z,42.00
2019-02-28T22:26:19.119Z,42.00
2019-02-28T22:28:49.280Z,42.10
2019-02-28T22:31:30.880Z,42.00
2019-02-28T22:34:05.594Z,42.10
2019-02-28T22:36:37.369Z,42.20
2019-02-28T22:39:07.854Z,42.10
2019-02-28T22:41:39.716Z,42.20
2019-02-28T22:44:09.862Z,42.10
2019-02-28T22:46:39.992Z,42.20
2019-02-28T22:49:10.142Z,42.10
2019-02-28T22:51:40.347Z,42.20
2019-02-28T22:54:10.494Z,42.20
2019-02-28T22:56:40.621Z,42.20
2019-02-28T22:59:10.831Z,42.30
2019-02-28T23:01:41.338Z,42.20
2019-02-28T23:04:11.525Z,42.20
2019-02-28T23:06:41.731Z,42.30
2019-02-28T23:09:11.879Z,42.40
2019-02-28T23:11:42.025Z,42.30
2019-02-28T23:14:12.170Z,42.30
2019-02-28T23:16:42.326Z,42.30
2019-02-28T23:19:12.461Z,42.30
2019-02-28T23:21:42.978Z,42.30
2019-02-28T23:24:13.400Z,42.30
2019-02-28T23:27:11.211Z,42.40
2019-02-28T23:29:48.748Z,42.30
2019-02-28T23:32:35.897Z,42.30
2019-02-28T23:35:11.169Z,42.30
2019-02-28T23:37:41.467Z,42.40
2019-02-28T23:40:11.771Z,42.40
2019-02-28T23:42:42.172Z,42.30
2019-02-28T23:45:12.505Z,42.40
2019-02-28T23:47:42.625Z,42.40
2019-02-28T23:50:13.083Z,42.30
2019-02-28T23:52:43.210Z,42.40
2019-02-28T23:55:13.367Z,42.40
2019-02-28T23:57:43.497Z,42.40
